Time;durP1;ratioP1;P1;durP2;ratioP2;P2;SDS_P1;SDS_P2;PMS_P1;PMS_P2;Temp;Humidity;BMP_temperature;BMP_pressure;BME280_temperature;BME280_humidity;BME280_pressure;Samples;Min_cycle;Max_cycle;Signal;HPM_P1;HPM_P2
2023/04/26 00:02:14;;;;;;;8.27;4.25;;;;;;;;;;5052871;28;20052;-59
2023/04/26 00:04:41;;;;;;;10.00;4.00;;;;;;;;;;5049084;28;20475;-59
2023/04/26 00:07:07;;;;;;;8.70;3.50;;;;;;;;;;5062915;28;20084;-57
2023/04/26 00:09:34;;;;;;;9.20;3.42;;;;;;;;;;5054976;28;20140;-59
2023/04/26 00:12:00;;;;;;;8.43;3.38;;;;;;;;;;5055348;28;20053;-60
2023/04/26 00:14:27;;;;;;;11.45;4.40;;;;;;;;;;5052979;28;20057;-59
2023/04/26 00:16:53;;;;;;;8.50;3.40;;;;;;;;;;5058739;28;20060;-59
2023/04/26 00:19:20;;;;;;;13.38;4.45;;;;;;;;;;5056069;28;20132;-59
2023/04/26 00:21:46;;;;;;;8.68;3.78;;;;;;;;;;5055324;28;20072;-59
2023/04/26 00:24:12;;;;;;;8.63;3.85;;;;;;;;;;5063777;28;20563;-57
2023/04/26 00:26:39;;;;;;;6.75;4.18;;;;;;;;;;5043945;28;20049;-59
2023/04/26 00:29:06;;;;;;;7.53;4.25;;;;;;;;;;5052239;28;20053;-58
2023/04/26 00:31:32;;;;;;;6.80;4.18;;;;;;;;;;5062792;28;20060;-58
2023/04/26 00:33:59;;;;;;;9.48;3.95;;;;;;;;;;5068638;28;20049;-59
2023/04/26 00:36:26;;;;;;;13.57;4.57;;;;;;;;;;5058317;28;20140;-59
2023/04/26 00:38:52;;;;;;;14.95;5.25;;;;;;;;;;5063596;28;20049;-58
2023/04/26 00:41:19;;;;;;;9.48;4.97;;;;;;;;;;5060451;28;20057;-59
2023/04/26 00:43:45;;;;;;;18.58;5.38;;;;;;;;;;5059533;28;20099;-59
2023/04/26 00:46:12;;;;;;;10.90;4.50;;;;;;;;;;5063070;28;20063;-58
2023/04/26 00:48:38;;;;;;;14.13;4.90;;;;;;;;;;5043720;28;20049;-59
2023/04/26 00:51:05;;;;;;;9.80;4.10;;;;;;;;;;5075425;28;20060;-59
2023/04/26 00:53:33;;;;;;;8.57;4.63;;;;;;;;;;5071562;28;20063;-56
2023/04/26 00:55:59;;;;;;;8.75;4.20;;;;;;;;;;5055366;28;20058;-57
2023/04/26 00:58:26;;;;;;;14.80;4.97;;;;;;;;;;5054465;28;20576;-57
2023/04/26 01:00:52;;;;;;;9.20;5.20;;;;;;;;;;5055889;28;20100;-59
2023/04/26 01:03:19;;;;;;;11.00;5.22;;;;;;;;;;5046455;28;20096;-60
2023/04/26 01:05:45;;;;;;;10.45;4.90;;;;;;;;;;5062389;28;20567;-59
2023/04/26 01:08:15;;;;;;;9.77;4.95;;;;;;;;;;5069507;28;20063;-58
2023/04/26 01:10:42;;;;;;;10.32;4.47;;;;;;;;;;5065190;28;20058;-59
2023/04/26 01:13:10;;;;;;;11.43;5.10;;;;;;;;;;5065306;28;20246;-58
2023/04/26 01:15:36;;;;;;;10.45;4.90;;;;;;;;;;5043523;28;20068;-59
2023/04/26 01:18:03;;;;;;;8.13;4.32;;;;;;;;;;5065480;28;20479;-59
2023/04/26 01:20:31;;;;;;;16.13;4.90;;;;;;;;;;5047241;28;20061;-58
2023/04/26 01:22:57;;;;;;;8.00;4.55;;;;;;;;;;5077493;28;20143;-57
2023/04/26 01:25:24;;;;;;;10.35;4.55;;;;;;;;;;5062775;28;20129;-58
2023/04/26 01:27:50;;;;;;;7.43;5.20;;;;;;;;;;5056473;28;20502;-59
2023/04/26 01:30:17;;;;;;;8.27;4.72;;;;;;;;;;5084117;28;20180;-56
2023/04/26 01:32:43;;;;;;;11.63;5.05;;;;;;;;;;5059519;28;20053;-58
2023/04/26 01:35:10;;;;;;;10.82;4.53;;;;;;;;;;5051580;28;20475;-57
2023/04/26 01:37:36;;;;;;;13.27;4.95;;;;;;;;;;5061320;28;20103;-58
2023/04/26 01:40:05;;;;;;;7.47;4.70;;;;;;;;;;5061821;28;20633;-59
2023/04/26 01:42:32;;;;;;;7.28;4.30;;;;;;;;;;5047940;28;20145;-57
2023/04/26 01:44:58;;;;;;;11.88;5.22;;;;;;;;;;5042829;28;20054;-58
2023/04/26 01:47:25;;;;;;;11.95;4.57;;;;;;;;;;5044872;28;20083;-56
2023/04/26 01:49:51;;;;;;;11.93;4.47;;;;;;;;;;5048116;28;20049;-59
2023/04/26 01:52:18;;;;;;;9.80;4.53;;;;;;;;;;5063198;28;21051;-58
2023/04/26 01:54:44;;;;;;;9.80;4.03;;;;;;;;;;5047122;28;20496;-59
2023/04/26 01:57:11;;;;;;;7.15;4.20;;;;;;;;;;5057422;28;20045;-56
2023/04/26 01:59:37;;;;;;;10.23;4.15;;;;;;;;;;5074311;28;20118;-59
2023/04/26 02:02:04;;;;;;;9.27;4.53;;;;;;;;;;5056592;28;20058;-58
2023/04/26 02:04:30;;;;;;;11.70;4.80;;;;;;;;;;5043737;28;20053;-57
2023/04/26 02:06:57;;;;;;;13.75;5.25;;;;;;;;;;5069045;28;20624;-59
2023/04/26 02:09:24;;;;;;;7.25;4.35;;;;;;;;;;5073203;28;20059;-57
2023/04/26 02:11:50;;;;;;;6.95;3.78;;;;;;;;;;5045904;28;20479;-59
2023/04/26 02:14:16;;;;;;;6.28;3.70;;;;;;;;;;5050111;28;20144;-58
2023/04/26 02:16:43;;;;;;;6.40;4.00;;;;;;;;;;5060475;28;20048;-57
2023/04/26 02:19:10;;;;;;;9.07;3.88;;;;;;;;;;5058949;28;20123;-58
2023/04/26 02:21:53;;;;;;;11.25;4.55;;;;;;;;;;5057413;28;20111;-57
2023/04/26 02:24:20;;;;;;;8.05;3.67;;;;;;;;;;5042305;28;20053;-59
2023/04/26 02:26:46;;;;;;;13.45;4.53;;;;;;;;;;5050976;28;20128;-58
2023/04/26 02:29:13;;;;;;;11.93;4.53;;;;;;;;;;5056219;28;20064;-58
2023/04/26 02:31:39;;;;;;;20.50;5.70;;;;;;;;;;5055861;28;20136;-58
2023/04/26 02:34:05;;;;;;;8.90;4.60;;;;;;;;;;5059120;28;20053;-57
2023/04/26 02:36:32;;;;;;;9.82;4.30;;;;;;;;;;5071431;28;20055;-59
2023/04/26 02:38:59;;;;;;;6.88;3.97;;;;;;;;;;5060141;28;20057;-58
2023/04/26 02:41:25;;;;;;;11.13;4.53;;;;;;;;;;5052145;28;20058;-57
2023/04/26 02:43:51;;;;;;;8.18;4.60;;;;;;;;;;5063558;28;20057;-58
2023/04/26 02:46:18;;;;;;;8.32;4.43;;;;;;;;;;5066591;28;20575;-58
2023/04/26 02:48:45;;;;;;;11.88;4.82;;;;;;;;;;5071036;28;20503;-58
2023/04/26 02:51:11;;;;;;;10.68;4.55;;;;;;;;;;5063357;28;20415;-58
2023/04/26 02:53:37;;;;;;;9.27;4.80;;;;;;;;;;5071158;28;20060;-57
2023/04/26 02:56:04;;;;;;;9.90;4.75;;;;;;;;;;5066259;28;20520;-58
2023/04/26 02:58:31;;;;;;;12.13;5.15;;;;;;;;;;5055993;28;20103;-58
2023/04/26 03:00:58;;;;;;;5.80;4.03;;;;;;;;;;5060780;28;20081;-58
2023/04/26 03:03:27;;;;;;;9.13;4.53;;;;;;;;;;5049452;28;20073;-58
2023/04/26 03:05:54;;;;;;;12.70;4.78;;;;;;;;;;5056626;28;20064;-56
2023/04/26 03:08:20;;;;;;;9.13;4.82;;;;;;;;;;5057282;28;20541;-58
2023/04/26 03:10:47;;;;;;;7.95;4.40;;;;;;;;;;5067104;28;20511;-55
2023/04/26 03:13:14;;;;;;;6.65;4.28;;;;;;;;;;5053185;28;20053;-59
2023/04/26 03:15:46;;;;;;;9.15;4.07;;;;;;;;;;5073778;28;20131;-55
2023/04/26 03:18:12;;;;;;;12.52;4.55;;;;;;;;;;5067685;28;20057;-57
2023/04/26 03:20:39;;;;;;;8.25;4.50;;;;;;;;;;5060496;28;20490;-56
2023/04/26 03:23:05;;;;;;;5.93;4.32;;;;;;;;;;5047792;28;20548;-57
2023/04/26 03:25:32;;;;;;;9.68;3.75;;;;;;;;;;5065748;28;20086;-56
2023/04/26 03:27:58;;;;;;;8.15;5.22;;;;;;;;;;5060002;28;20127;-58
2023/04/26 03:30:25;;;;;;;7.50;4.50;;;;;;;;;;5061927;28;20076;-57
2023/04/26 03:32:52;;;;;;;11.23;5.15;;;;;;;;;;5056461;28;20053;-58
2023/04/26 03:35:18;;;;;;;8.20;4.75;;;;;;;;;;5065664;28;20057;-59
2023/04/26 03:37:44;;;;;;;7.85;5.07;;;;;;;;;;5066166;28;20060;-57
2023/04/26 03:40:11;;;;;;;10.43;5.20;;;;;;;;;;5065656;28;20056;-58
2023/04/26 03:42:37;;;;;;;13.13;5.22;;;;;;;;;;5057956;28;20055;-57
2023/04/26 03:45:04;;;;;;;8.50;4.90;;;;;;;;;;5070678;28;20148;-57
2023/04/26 03:47:30;;;;;;;15.55;5.57;;;;;;;;;;5077650;28;20293;-56
2023/04/26 03:49:57;;;;;;;13.23;5.75;;;;;;;;;;5050884;28;20045;-56
2023/04/26 03:52:24;;;;;;;14.38;6.03;;;;;;;;;;5068248;28;20059;-58
2023/04/26 03:54:50;;;;;;;11.93;6.43;;;;;;;;;;5046998;28;20085;-58
2023/04/26 03:57:17;;;;;;;14.40;5.88;;;;;;;;;;5047567;28;20056;-57
2023/04/26 03:59:43;;;;;;;17.70;6.03;;;;;;;;;;5066653;28;20425;-59
2023/04/26 04:02:09;;;;;;;18.70;6.40;;;;;;;;;;5053331;28;20527;-58
2023/04/26 04:04:36;;;;;;;11.85;6.85;;;;;;;;;;5050562;28;20057;-57
2023/04/26 04:07:02;;;;;;;15.63;6.22;;;;;;;;;;5053189;28;20068;-57
2023/04/26 04:09:29;;;;;;;9.75;6.10;;;;;;;;;;5050376;28;20145;-59
2023/04/26 04:11:55;;;;;;;13.43;6.40;;;;;;;;;;5062275;28;20057;-56
2023/04/26 04:14:21;;;;;;;12.18;6.15;;;;;;;;;;5050652;28;20057;-58
2023/04/26 04:16:47;;;;;;;18.27;7.22;;;;;;;;;;5052672;28;20053;-57
2023/04/26 04:19:14;;;;;;;11.98;5.65;;;;;;;;;;5047551;28;20562;-56
2023/04/26 04:21:42;;;;;;;11.63;6.53;;;;;;;;;;5043442;28;20093;-58
2023/04/26 04:24:08;;;;;;;11.45;6.10;;;;;;;;;;5059806;28;20053;-59
2023/04/26 04:26:34;;;;;;;13.02;7.32;;;;;;;;;;5063004;28;20199;-57
2023/04/26 04:29:07;;;;;;;13.02;6.40;;;;;;;;;;5070403;28;20470;-58
2023/04/26 04:31:34;;;;;;;10.88;6.35;;;;;;;;;;5053617;28;20085;-58
2023/04/26 04:34:01;;;;;;;11.10;5.93;;;;;;;;;;5062755;28;20085;-57
2023/04/26 04:36:27;;;;;;;14.02;6.53;;;;;;;;;;5070449;28;20123;-57
2023/04/26 04:38:54;;;;;;;11.05;6.00;;;;;;;;;;5068563;28;20140;-59
2023/04/26 04:41:21;;;;;;;12.35;6.20;;;;;;;;;;5066902;28;20076;-63
2023/04/26 04:43:47;;;;;;;16.85;6.47;;;;;;;;;;5071561;28;20057;-59
2023/04/26 04:46:14;;;;;;;12.75;5.35;;;;;;;;;;5072640;28;20057;-58
2023/04/26 04:48:40;;;;;;;12.35;5.72;;;;;;;;;;5069413;28;20053;-57
2023/04/26 04:51:07;;;;;;;9.98;5.93;;;;;;;;;;5073175;28;20503;-58
2023/04/26 04:53:33;;;;;;;13.45;5.65;;;;;;;;;;5069166;28;20142;-57
2023/04/26 04:56:00;;;;;;;12.20;5.70;;;;;;;;;;5069898;28;20541;-56
2023/04/26 04:58:26;;;;;;;11.10;6.05;;;;;;;;;;5071933;28;20615;-58
2023/04/26 05:00:54;;;;;;;16.83;6.30;;;;;;;;;;5074400;28;20527;-58
2023/04/26 05:03:21;;;;;;;13.95;6.07;;;;;;;;;;5072769;28;20533;-58
2023/04/26 05:05:48;;;;;;;14.00;6.10;;;;;;;;;;5066354;28;20056;-57
2023/04/26 05:08:14;;;;;;;10.77;5.63;;;;;;;;;;5069874;28;20110;-58
2023/04/26 05:10:41;;;;;;;10.10;5.25;;;;;;;;;;5069076;28;20140;-57
2023/04/26 05:13:07;;;;;;;14.90;7.47;;;;;;;;;;5067878;28;20524;-57
2023/04/26 05:15:33;;;;;;;12.80;5.57;;;;;;;;;;5074709;28;20059;-58
2023/04/26 05:18:00;;;;;;;13.38;5.63;;;;;;;;;;5074897;28;20049;-58
2023/04/26 05:20:28;;;;;;;13.63;5.45;;;;;;;;;;5071932;28;20056;-58
2023/04/26 05:22:55;;;;;;;10.95;6.05;;;;;;;;;;5066736;28;20146;-58
2023/04/26 05:25:21;;;;;;;7.22;4.57;;;;;;;;;;5064660;28;20345;-57
2023/04/26 05:27:48;;;;;;;8.95;5.00;;;;;;;;;;5068416;28;20661;-58
2023/04/26 05:30:14;;;;;;;10.60;4.78;;;;;;;;;;5068622;28;20049;-59
2023/04/26 05:32:41;;;;;;;10.13;5.18;;;;;;;;;;5067645;28;20122;-57
2023/04/26 05:35:08;;;;;;;15.73;5.75;;;;;;;;;;5066387;28;20049;-58
2023/04/26 05:37:34;;;;;;;13.10;6.40;;;;;;;;;;5067502;28;20064;-58
2023/04/26 05:40:01;;;;;;;10.65;5.40;;;;;;;;;;5072239;28;20601;-58
2023/04/26 05:42:28;;;;;;;10.27;4.97;;;;;;;;;;5073608;28;20060;-58
2023/04/26 05:44:58;;;;;;;11.57;4.80;;;;;;;;;;5068865;28;20059;-57
2023/04/26 05:47:25;;;;;;;9.18;4.50;;;;;;;;;;5067900;28;20049;-57
2023/04/26 05:49:51;;;;;;;7.22;4.18;;;;;;;;;;5067424;28;20162;-57
2023/04/26 05:52:18;;;;;;;12.25;4.25;;;;;;;;;;5075004;28;20115;-57
2023/04/26 05:54:45;;;;;;;11.18;5.00;;;;;;;;;;5062425;28;20049;-55
2023/04/26 05:57:11;;;;;;;16.95;5.65;;;;;;;;;;5063605;28;20526;-57
2023/04/26 05:59:38;;;;;;;15.00;4.28;;;;;;;;;;5071571;28;20057;-58
2023/04/26 06:02:04;;;;;;;13.80;4.60;;;;;;;;;;5064621;28;20049;-57
2023/04/26 06:04:31;;;;;;;10.60;4.30;;;;;;;;;;5065459;28;20057;-57
2023/04/26 06:06:59;;;;;;;10.13;3.67;;;;;;;;;;5069395;28;20052;-58
2023/04/26 06:09:26;;;;;;;6.60;4.15;;;;;;;;;;5064814;28;20492;-58
2023/04/26 06:11:52;;;;;;;10.93;5.00;;;;;;;;;;5063107;28;20061;-59
2023/04/26 06:14:20;;;;;;;11.98;4.75;;;;;;;;;;5062247;28;20502;-58
2023/04/26 06:16:56;;;;;;;13.30;3.60;;;;;;;;;;5067630;28;20504;-58
2023/04/26 06:19:23;;;;;;;9.23;3.63;;;;;;;;;;5065116;28;20492;-59
2023/04/26 06:21:51;;;;;;;8.13;3.40;;;;;;;;;;5067414;28;20057;-58
2023/04/26 06:24:17;;;;;;;8.98;3.05;;;;;;;;;;5061676;28;20176;-58
2023/04/26 06:26:43;;;;;;;7.20;3.40;;;;;;;;;;5063564;28;20144;-56
2023/04/26 06:29:09;;;;;;;9.90;4.60;;;;;;;;;;5051396;28;20053;-59
2023/04/26 06:31:36;;;;;;;11.60;3.65;;;;;;;;;;5065830;28;20057;-58
2023/04/26 06:34:03;;;;;;;10.65;3.53;;;;;;;;;;5065655;28;20179;-56
2023/04/26 06:36:30;;;;;;;10.48;4.03;;;;;;;;;;5064740;28;20400;-59
2023/04/26 06:38:56;;;;;;;10.20;4.05;;;;;;;;;;5069619;28;20069;-57
2023/04/26 06:41:22;;;;;;;7.28;3.85;;;;;;;;;;5062546;28;20419;-58
2023/04/26 06:43:49;;;;;;;9.88;5.43;;;;;;;;;;5064418;28;20488;-59
2023/04/26 06:46:16;;;;;;;6.57;3.88;;;;;;;;;;5062831;28;20057;-58
2023/04/26 06:48:42;;;;;;;7.32;4.22;;;;;;;;;;5067232;28;20122;-57
2023/04/26 06:51:09;;;;;;;18.88;4.50;;;;;;;;;;5066269;28;20087;-56
2023/04/26 06:53:35;;;;;;;6.18;3.85;;;;;;;;;;5076937;28;20052;-58
2023/04/26 06:56:02;;;;;;;7.82;3.92;;;;;;;;;;5081585;28;20053;-58
2023/04/26 06:58:28;;;;;;;9.57;4.40;;;;;;;;;;5045792;28;20132;-58
2023/04/26 07:00:55;;;;;;;6.90;3.83;;;;;;;;;;5060370;28;20703;-56
2023/04/26 07:03:22;;;;;;;5.38;3.10;;;;;;;;;;5068347;28;20670;-57
2023/04/26 07:05:48;;;;;;;8.88;3.92;;;;;;;;;;5061081;28;20059;-57
2023/04/26 07:08:15;;;;;;;6.18;3.05;;;;;;;;;;5072716;28;20102;-58
2023/04/26 07:10:41;;;;;;;8.95;3.40;;;;;;;;;;5067200;28;20058;-57
2023/04/26 07:13:08;;;;;;;6.70;2.90;;;;;;;;;;5066838;28;20059;-58
2023/04/26 07:15:35;;;;;;;5.57;2.95;;;;;;;;;;5074089;28;20084;-58
2023/04/26 07:18:01;;;;;;;8.70;2.65;;;;;;;;;;5065971;28;20531;-58
2023/04/26 07:20:27;;;;;;;7.45;3.45;;;;;;;;;;5068084;28;20053;-58
2023/04/26 07:22:54;;;;;;;5.85;3.28;;;;;;;;;;5068584;28;20067;-58
2023/04/26 07:25:20;;;;;;;6.93;2.60;;;;;;;;;;5060774;28;20053;-58
2023/04/26 07:27:47;;;;;;;4.88;2.60;;;;;;;;;;5061671;28;20048;-59
2023/04/26 07:30:13;;;;;;;10.32;2.90;;;;;;;;;;5064057;28;20497;-57
2023/04/26 07:32:39;;;;;;;9.73;3.42;;;;;;;;;;5062421;28;20613;-57
2023/04/26 07:35:06;;;;;;;4.57;2.92;;;;;;;;;;5062576;28;20053;-59
2023/04/26 07:37:33;;;;;;;5.63;3.35;;;;;;;;;;5073332;28;20053;-58
2023/04/26 07:39:59;;;;;;;8.63;3.05;;;;;;;;;;5064501;28;20534;-59
2023/04/26 07:42:25;;;;;;;9.43;3.35;;;;;;;;;;5064548;28;20060;-59
2023/04/26 07:44:51;;;;;;;4.53;2.83;;;;;;;;;;5065931;28;20052;-58
2023/04/26 07:47:18;;;;;;;12.68;3.10;;;;;;;;;;5075943;28;20052;-58
2023/04/26 07:49:44;;;;;;;3.75;2.50;;;;;;;;;;5068006;28;20071;-59
2023/04/26 07:52:13;;;;;;;5.70;2.85;;;;;;;;;;5080583;28;20059;-59
2023/04/26 07:54:39;;;;;;;8.38;2.25;;;;;;;;;;5071173;28;20049;-58
2023/04/26 07:57:06;;;;;;;3.28;1.83;;;;;;;;;;5070805;28;20049;-57
2023/04/26 07:59:32;;;;;;;5.30;1.73;;;;;;;;;;5068790;28;20143;-58
2023/04/26 08:01:58;;;;;;;4.40;1.80;;;;;;;;;;5072121;28;20048;-59
2023/04/26 08:04:35;;;;;;;6.97;1.67;;;;;;;;;;5076573;28;20060;-57
2023/04/26 08:07:02;;;;;;;4.50;1.77;;;;;;;;;;5066330;28;20051;-57
2023/04/26 08:09:29;;;;;;;3.22;1.70;;;;;;;;;;5060103;28;20065;-57
2023/04/26 08:11:56;;;;;;;9.32;1.70;;;;;;;;;;5057529;28;20060;-59
2023/04/26 08:14:23;;;;;;;7.70;1.85;;;;;;;;;;5064637;28;20059;-59
2023/04/26 08:16:50;;;;;;;4.57;1.50;;;;;;;;;;5063880;28;20048;-58
2023/04/26 08:19:16;;;;;;;11.27;2.53;;;;;;;;;;5062798;28;20148;-58
2023/04/26 08:21:43;;;;;;;11.65;2.78;;;;;;;;;;5062603;28;20067;-58
2023/04/26 08:24:09;;;;;;;4.03;1.70;;;;;;;;;;5061923;28;20049;-58
2023/04/26 08:26:36;;;;;;;4.63;2.10;;;;;;;;;;5073114;28;20532;-58
2023/04/26 08:29:03;;;;;;;2.58;1.77;;;;;;;;;;5070506;28;20067;-57
2023/04/26 08:31:29;;;;;;;4.40;1.60;;;;;;;;;;5073290;28;20080;-58
2023/04/26 08:33:55;;;;;;;3.42;1.58;;;;;;;;;;5073817;28;20048;-59
2023/04/26 08:36:22;;;;;;;5.50;1.65;;;;;;;;;;5069890;28;20052;-57
2023/04/26 08:38:48;;;;;;;6.22;1.60;;;;;;;;;;5068549;28;20606;-57
2023/04/26 08:41:18;;;;;;;4.35;1.50;;;;;;;;;;5069665;28;20492;-58
2023/04/26 08:43:45;;;;;;;3.47;1.60;;;;;;;;;;5076131;28;20507;-57
2023/04/26 08:46:15;;;;;;;2.72;1.80;;;;;;;;;;5075218;28;20053;-58
2023/04/26 08:48:41;;;;;;;5.82;2.17;;;;;;;;;;5066007;28;20096;-57
2023/04/26 08:51:10;;;;;;;7.22;1.98;;;;;;;;;;5065532;28;20148;-58
2023/04/26 08:53:37;;;;;;;6.82;2.47;;;;;;;;;;5067032;28;20678;-59
2023/04/26 08:56:05;;;;;;;5.63;1.70;;;;;;;;;;5081410;28;20052;-58
2023/04/26 08:58:31;;;;;;;6.65;2.67;;;;;;;;;;5082810;28;20651;-58
2023/04/26 09:00:59;;;;;;;25.55;3.65;;;;;;;;;;5069471;28;20067;-58
2023/04/26 09:03:25;;;;;;;10.60;2.28;;;;;;;;;;5068046;28;20102;-58
2023/04/26 09:05:52;;;;;;;7.80;2.90;;;;;;;;;;5065467;28;20056;-58
2023/04/26 09:08:19;;;;;;;5.63;2.00;;;;;;;;;;5076049;28;20171;-56
2023/04/26 09:10:45;;;;;;;5.80;2.00;;;;;;;;;;5075078;28;20243;-58
2023/04/26 09:13:13;;;;;;;10.13;2.40;;;;;;;;;;5067743;28;20048;-58
2023/04/26 09:15:40;;;;;;;7.38;2.08;;;;;;;;;;5075956;28;20048;-57
2023/04/26 09:18:16;;;;;;;5.13;1.70;;;;;;;;;;5068430;28;20056;-58
2023/04/26 09:20:44;;;;;;;8.43;1.90;;;;;;;;;;5070200;28;20586;-56
2023/04/26 09:23:10;;;;;;;5.65;2.00;;;;;;;;;;5070422;28;20423;-56
2023/04/26 09:25:36;;;;;;;6.55;2.25;;;;;;;;;;5071852;28;20053;-58
2023/04/26 09:28:17;;;;;;;3.50;1.45;;;;;;;;;;5069522;28;20466;-58
2023/04/26 09:30:43;;;;;;;8.38;1.67;;;;;;;;;;5066597;28;20067;-57
2023/04/26 09:33:10;;;;;;;8.60;1.85;;;;;;;;;;5069353;28;20839;-57
2023/04/26 09:35:36;;;;;;;7.78;1.42;;;;;;;;;;5069400;28;20086;-57
2023/04/26 09:38:04;;;;;;;7.70;1.20;;;;;;;;;;5070856;28;20442;-58
2023/04/26 09:40:44;;;;;;;5.65;1.75;;;;;;;;;;5067336;28;20048;-59
2023/04/26 09:43:12;;;;;;;12.57;2.28;;;;;;;;;;5065192;28;20154;-58
2023/04/26 09:45:49;;;;;;;3.33;1.35;;;;;;;;;;5073169;28;20057;-57
2023/04/26 09:48:16;;;;;;;13.70;3.22;;;;;;;;;;5062887;28;20101;-58
2023/04/26 09:50:46;;;;;;;11.75;2.40;;;;;;;;;;5060444;28;20057;-58
2023/04/26 09:53:25;;;;;;;5.32;1.70;;;;;;;;;;5067830;28;20610;-59
2023/04/26 09:55:52;;;;;;;4.82;1.50;;;;;;;;;;5067093;28;20639;-59
2023/04/26 09:58:18;;;;;;;7.13;1.48;;;;;;;;;;5068337;28;20057;-58
2023/04/26 10:00:48;;;;;;;13.27;2.35;;;;;;;;;;5065234;28;20049;-59
2023/04/26 10:03:16;;;;;;;6.85;1.30;;;;;;;;;;5070496;28;20084;-58
2023/04/26 10:05:43;;;;;;;1.92;1.40;;;;;;;;;;5075777;28;20063;-58
2023/04/26 10:08:10;;;;;;;7.10;1.85;;;;;;;;;;5075577;28;20060;-58
2023/04/26 10:10:37;;;;;;;5.28;1.70;;;;;;;;;;5069093;28;20143;-58
2023/04/26 10:13:04;;;;;;;1.58;1.48;;;;;;;;;;5068715;28;20048;-57
2023/04/26 10:15:31;;;;;;;4.90;1.70;;;;;;;;;;5068203;28;20053;-57
2023/04/26 10:17:57;;;;;;;2.95;1.77;;;;;;;;;;5073451;28;20151;-58
2023/04/26 10:20:27;;;;;;;2.97;1.30;;;;;;;;;;5072136;28;20049;-57
2023/04/26 10:22:59;;;;;;;5.60;1.70;;;;;;;;;;5067586;28;20053;-58
2023/04/26 10:25:36;;;;;;;3.30;1.40;;;;;;;;;;5070708;28;20055;-58
2023/04/26 10:28:03;;;;;;;5.25;1.75;;;;;;;;;;5069150;28;20111;-57
2023/04/26 10:30:31;;;;;;;2.92;1.20;;;;;;;;;;5067869;28;20055;-58
2023/04/26 10:32:57;;;;;;;2.88;1.38;;;;;;;;;;5073032;28;20056;-57
2023/04/26 10:35:25;;;;;;;3.95;1.70;;;;;;;;;;5070582;28;20106;-58
2023/04/26 10:38:00;;;;;;;2.30;1.50;;;;;;;;;;5067197;28;20063;-58
2023/04/26 10:40:28;;;;;;;2.08;1.60;;;;;;;;;;5067092;28;20049;-58
2023/04/26 10:43:17;;;;;;;2.05;1.55;;;;;;;;;;5072433;28;20056;-58
2023/04/26 10:45:44;;;;;;;4.00;1.30;;;;;;;;;;5067998;28;20095;-59
2023/04/26 10:48:18;;;;;;;6.13;1.70;;;;;;;;;;5049152;28;20050;-58
2023/04/26 10:51:11;;;;;;;5.35;1.65;;;;;;;;;;5058331;28;20057;-56
2023/04/26 10:53:44;;;;;;;4.88;1.40;;;;;;;;;;5042526;28;20053;-58
2023/04/26 10:56:11;;;;;;;2.95;1.40;;;;;;;;;;5061472;28;20203;-59
2023/04/26 10:58:40;;;;;;;3.60;1.60;;;;;;;;;;5065788;28;20084;-57
2023/04/26 11:01:07;;;;;;;4.40;1.52;;;;;;;;;;5085647;28;20143;-59
2023/04/26 11:03:33;;;;;;;4.78;1.77;;;;;;;;;;5079047;28;20073;-57
2023/04/26 11:06:04;;;;;;;6.68;2.25;;;;;;;;;;5081445;28;20063;-59
2023/04/26 11:08:31;;;;;;;5.78;1.27;;;;;;;;;;5065814;28;20498;-58
2023/04/26 11:11:03;;;;;;;4.28;1.58;;;;;;;;;;5066808;28;20052;-59
2023/04/26 11:13:30;;;;;;;2.05;1.52;;;;;;;;;;5065581;28;20045;-58
2023/04/26 11:16:04;;;;;;;6.65;1.40;;;;;;;;;;5055885;28;20684;-59
2023/04/26 11:18:31;;;;;;;6.32;1.35;;;;;;;;;;5044376;28;20455;-58
2023/04/26 11:20:58;;;;;;;3.30;1.38;;;;;;;;;;5045969;28;20140;-59
2023/04/26 11:23:26;;;;;;;3.42;1.60;;;;;;;;;;5046062;28;20504;-58
2023/04/26 11:25:53;;;;;;;8.60;1.52;;;;;;;;;;5044735;28;20531;-59
2023/04/26 11:28:22;;;;;;;1.63;1.45;;;;;;;;;;5045763;28;20049;-59
2023/04/26 11:30:49;;;;;;;4.63;1.52;;;;;;;;;;5063502;28;20650;-59
2023/04/26 11:33:21;;;;;;;2.05;1.40;;;;;;;;;;5073781;28;20057;-59
2023/04/26 11:35:48;;;;;;;3.00;1.25;;;;;;;;;;5082748;28;20059;-57
2023/04/26 11:38:14;;;;;;;3.05;1.73;;;;;;;;;;5075402;28;20499;-57
2023/04/26 11:40:41;;;;;;;2.33;1.42;;;;;;;;;;5059173;28;20045;-58
2023/04/26 11:43:08;;;;;;;2.70;1.60;;;;;;;;;;5067329;28;20079;-58
2023/04/26 11:45:36;;;;;;;5.07;2.38;;;;;;;;;;5080009;28;20144;-59
2023/04/26 11:48:03;;;;;;;1.95;1.30;;;;;;;;;;5065547;28;20060;-58
2023/04/26 11:50:31;;;;;;;4.20;1.58;;;;;;;;;;5065486;28;20052;-58
2023/04/26 11:52:58;;;;;;;2.85;1.80;;;;;;;;;;5059891;28;20592;-58
2023/04/26 11:55:30;;;;;;;3.90;1.75;;;;;;;;;;5077410;28;20621;-59
2023/04/26 11:57:57;;;;;;;3.28;1.67;;;;;;;;;;5080632;28;20783;-58
2023/04/26 12:00:24;;;;;;;1.45;1.20;;;;;;;;;;5073785;28;20076;-59
2023/04/26 12:02:52;;;;;;;3.80;1.60;;;;;;;;;;5072911;28;20075;-59
2023/04/26 12:05:21;;;;;;;2.50;1.27;;;;;;;;;;5065451;28;20131;-58
2023/04/26 12:07:51;;;;;;;3.83;2.10;;;;;;;;;;5070147;28;20141;-59
2023/04/26 12:10:19;;;;;;;6.97;1.80;;;;;;;;;;5050717;28;20433;-55
2023/04/26 12:12:49;;;;;;;4.75;1.80;;;;;;;;;;5046762;28;20567;-56
2023/04/26 12:15:17;;;;;;;4.53;1.45;;;;;;;;;;5063966;28;20060;-59
2023/04/26 12:17:59;;;;;;;3.63;1.42;;;;;;;;;;5065272;28;20089;-59
2023/04/26 12:20:29;;;;;;;4.22;1.88;;;;;;;;;;5065548;28;20505;-59
2023/04/26 12:22:59;;;;;;;3.97;1.60;;;;;;;;;;5065544;28;20585;-59
2023/04/26 12:25:26;;;;;;;5.78;2.00;;;;;;;;;;5064668;28;20140;-59
2023/04/26 12:27:53;;;;;;;3.80;1.70;;;;;;;;;;5063593;28;20651;-60
2023/04/26 12:30:20;;;;;;;6.25;1.80;;;;;;;;;;5042847;28;20522;-60
2023/04/26 12:32:46;;;;;;;2.38;1.70;;;;;;;;;;5045098;28;20510;-60
2023/04/26 12:35:13;;;;;;;5.20;1.70;;;;;;;;;;5064687;28;20049;-58
2023/04/26 12:37:40;;;;;;;3.00;1.92;;;;;;;;;;5065070;28;20541;-60
2023/04/26 12:40:08;;;;;;;3.25;1.40;;;;;;;;;;5060906;28;20519;-60
2023/04/26 12:42:34;;;;;;;3.60;1.65;;;;;;;;;;5060832;28;20609;-59
2023/04/26 12:45:00;;;;;;;6.22;1.83;;;;;;;;;;5046687;28;20053;-59
2023/04/26 12:47:27;;;;;;;3.03;1.67;;;;;;;;;;5044756;28;20053;-59
2023/04/26 12:49:54;;;;;;;3.97;2.00;;;;;;;;;;5044390;28;20093;-58
2023/04/26 12:52:20;;;;;;;5.40;2.03;;;;;;;;;;5044171;28;20148;-59
2023/04/26 12:54:47;;;;;;;3.63;1.75;;;;;;;;;;5058315;28;20507;-59
2023/04/26 12:57:14;;;;;;;2.03;1.45;;;;;;;;;;5044532;28;20058;-59
2023/04/26 12:59:40;;;;;;;2.78;1.80;;;;;;;;;;5058550;28;20067;-60
2023/04/26 13:02:07;;;;;;;3.72;2.03;;;;;;;;;;5072888;28;20060;-59
2023/04/26 13:04:33;;;;;;;3.53;1.70;;;;;;;;;;5052668;28;20054;-59
2023/04/26 13:07:03;;;;;;;3.30;1.70;;;;;;;;;;5044150;28;20547;-58
2023/04/26 13:09:30;;;;;;;4.25;1.95;;;;;;;;;;5057698;28;20057;-59
2023/04/26 13:11:56;;;;;;;3.78;1.60;;;;;;;;;;5045080;28;20050;-59
2023/04/26 13:14:23;;;;;;;3.22;1.45;;;;;;;;;;5058941;28;20049;-57
2023/04/26 13:16:49;;;;;;;4.50;2.15;;;;;;;;;;5054861;28;20140;-58
2023/04/26 13:19:16;;;;;;;2.08;1.70;;;;;;;;;;5051282;28;20512;-59
2023/04/26 13:21:42;;;;;;;3.92;1.70;;;;;;;;;;5059130;28;20467;-60
2023/04/26 13:24:09;;;;;;;2.35;1.38;;;;;;;;;;5043869;28;20471;-59
2023/04/26 13:26:36;;;;;;;1.98;1.75;;;;;;;;;;5043551;28;20053;-59
2023/04/26 13:29:03;;;;;;;3.92;1.50;;;;;;;;;;5056671;28;20056;-59
2023/04/26 13:31:30;;;;;;;3.05;2.45;;;;;;;;;;5054477;28;20084;-59
2023/04/26 13:33:57;;;;;;;2.17;1.80;;;;;;;;;;5043892;28;20124;-59
2023/04/26 13:36:24;;;;;;;4.85;1.73;;;;;;;;;;5043819;28;20060;-59
2023/04/26 13:38:51;;;;;;;3.40;1.70;;;;;;;;;;5059100;28;20087;-59
2023/04/26 13:41:17;;;;;;;3.58;1.63;;;;;;;;;;5063361;28;20779;-59
2023/04/26 13:43:44;;;;;;;3.85;2.35;;;;;;;;;;5064488;28;20079;-59
2023/04/26 13:46:10;;;;;;;2.03;1.40;;;;;;;;;;5063541;28;20107;-59
2023/04/26 13:48:36;;;;;;;2.92;1.70;;;;;;;;;;5063187;28;20107;-59
2023/04/26 13:51:04;;;;;;;4.28;1.88;;;;;;;;;;5062951;28;20626;-59
2023/04/26 13:53:33;;;;;;;7.22;2.60;;;;;;;;;;5062765;28;20059;-59
2023/04/26 13:55:59;;;;;;;6.35;1.85;;;;;;;;;;5063130;28;20049;-59
2023/04/26 13:58:26;;;;;;;2.88;1.85;;;;;;;;;;5063678;28;20148;-59
2023/04/26 14:00:52;;;;;;;2.58;1.60;;;;;;;;;;5063577;28;20045;-59
2023/04/26 14:03:19;;;;;;;2.83;1.38;;;;;;;;;;5061842;28;20723;-59
2023/04/26 14:05:45;;;;;;;7.28;1.70;;;;;;;;;;5063641;28;20065;-59
2023/04/26 14:08:12;;;;;;;3.28;1.67;;;;;;;;;;5062226;28;20053;-59
2023/04/26 14:10:38;;;;;;;6.10;1.60;;;;;;;;;;5063182;28;20056;-58
2023/04/26 14:13:04;;;;;;;1.55;1.40;;;;;;;;;;5063205;28;20055;-59
2023/04/26 14:15:31;;;;;;;4.47;1.63;;;;;;;;;;5061241;28;20535;-59
2023/04/26 14:17:57;;;;;;;5.75;2.33;;;;;;;;;;5063702;28;20084;-59
2023/04/26 14:20:24;;;;;;;3.50;1.58;;;;;;;;;;5063277;28;20474;-59
2023/04/26 14:22:50;;;;;;;3.28;1.65;;;;;;;;;;5062216;28;20480;-59
2023/04/26 14:25:17;;;;;;;2.00;1.52;;;;;;;;;;5062227;28;20057;-59
2023/04/26 14:27:44;;;;;;;3.38;1.88;;;;;;;;;;5063129;28;20128;-60
2023/04/26 14:30:10;;;;;;;4.25;1.60;;;;;;;;;;5063379;28;20076;-58
2023/04/26 14:32:36;;;;;;;1.85;1.38;;;;;;;;;;5061812;28;20052;-59
2023/04/26 14:35:03;;;;;;;3.08;1.40;;;;;;;;;;5063106;28;20106;-58
2023/04/26 14:37:29;;;;;;;5.07;1.45;;;;;;;;;;5062329;28;20053;-59
2023/04/26 14:39:56;;;;;;;5.32;1.80;;;;;;;;;;5078192;28;20063;-60